sensor_id;sensor_type;location;lat;lon;timestamp;P1;durP1;ratioP1;P2;durP2;ratioP2
47337;SDS011;33069;51.970;5.892;2022-08-19T00:01:45;22.15;;;19.77;;
47337;SDS011;33069;51.970;5.892;2022-08-19T00:04:13;19.45;;;15.60;;
47337;SDS011;33069;51.970;5.892;2022-08-19T00:06:41;17.25;;;13.88;;
47337;SDS011;33069;51.970;5.892;2022-08-19T00:09:10;14.20;;;12.57;;
47337;SDS011;33069;51.970;5.892;2022-08-19T00:11:39;19.70;;;17.60;;
47337;SDS011;33069;51.970;5.892;2022-08-19T00:14:06;13.15;;;10.88;;
47337;SDS011;33069;51.970;5.892;2022-08-19T00:16:35;14.20;;;12.65;;
47337;SDS011;33069;51.970;5.892;2022-08-19T00:19:05;18.13;;;16.13;;
47337;SDS011;33069;51.970;5.892;2022-08-19T00:21:31;18.90;;;16.95;;
47337;SDS011;33069;51.970;5.892;2022-08-19T00:23:57;25.08;;;21.48;;
47337;SDS011;33069;51.970;5.892;2022-08-19T00:26:23;20.67;;;18.50;;
47337;SDS011;33069;51.970;5.892;2022-08-19T00:28:50;16.30;;;13.15;;
47337;SDS011;33069;51.970;5.892;2022-08-19T00:31:16;25.33;;;21.65;;
47337;SDS011;33069;51.970;5.892;2022-08-19T00:33:42;18.63;;;16.08;;
47337;SDS011;33069;51.970;5.892;2022-08-19T00:36:09;17.10;;;13.05;;
47337;SDS011;33069;51.970;5.892;2022-08-19T00:38:35;15.38;;;12.57;;
47337;SDS011;33069;51.970;5.892;2022-08-19T00:41:02;27.75;;;21.95;;
47337;SDS011;33069;51.970;5.892;2022-08-19T00:43:30;14.18;;;12.68;;
47337;SDS011;33069;51.970;5.892;2022-08-19T00:45:55;17.15;;;15.32;;
47337;SDS011;33069;51.970;5.892;2022-08-19T00:48:21;27.65;;;21.63;;
47337;SDS011;33069;51.970;5.892;2022-08-19T00:50:49;21.33;;;19.05;;
47337;SDS011;33069;51.970;5.892;2022-08-19T00:53:20;16.23;;;14.13;;
47337;SDS011;33069;51.970;5.892;2022-08-19T00:55:49;25.85;;;21.45;;
47337;SDS011;33069;51.970;5.892;2022-08-19T00:58:19;19.13;;;16.77;;
47337;SDS011;33069;51.970;5.892;2022-08-19T01:00:47;19.77;;;16.38;;
47337;SDS011;33069;51.970;5.892;2022-08-19T01:03:15;21.92;;;19.63;;
47337;SDS011;33069;51.970;5.892;2022-08-19T01:05:43;23.23;;;19.30;;
47337;SDS011;33069;51.970;5.892;2022-08-19T01:08:10;24.27;;;19.27;;
47337;SDS011;33069;51.970;5.892;2022-08-19T01:10:40;21.38;;;17.70;;
47337;SDS011;33069;51.970;5.892;2022-08-19T01:13:10;20.13;;;16.92;;
47337;SDS011;33069;51.970;5.892;2022-08-19T01:15:40;22.70;;;19.67;;
47337;SDS011;33069;51.970;5.892;2022-08-19T01:18:10;22.88;;;19.00;;
47337;SDS011;33069;51.970;5.892;2022-08-19T01:20:38;20.65;;;18.48;;
47337;SDS011;33069;51.970;5.892;2022-08-19T01:23:05;23.92;;;20.25;;
47337;SDS011;33069;51.970;5.892;2022-08-19T01:25:32;21.10;;;18.92;;
47337;SDS011;33069;51.970;5.892;2022-08-19T01:28:23;21.75;;;17.10;;
47337;SDS011;33069;51.970;5.892;2022-08-19T01:30:51;18.58;;;16.63;;
47337;SDS011;33069;51.970;5.892;2022-08-19T01:33:19;22.77;;;17.08;;
47337;SDS011;33069;51.970;5.892;2022-08-19T01:35:45;19.25;;;16.13;;
47337;SDS011;33069;51.970;5.892;2022-08-19T01:38:26;21.10;;;18.23;;
47337;SDS011;33069;51.970;5.892;2022-08-19T01:40:53;21.17;;;17.38;;
47337;SDS011;33069;51.970;5.892;2022-08-19T01:43:18;20.33;;;17.08;;
47337;SDS011;33069;51.970;5.892;2022-08-19T01:45:44;21.98;;;18.13;;
47337;SDS011;33069;51.970;5.892;2022-08-19T01:48:11;21.98;;;16.58;;
47337;SDS011;33069;51.970;5.892;2022-08-19T01:50:38;18.98;;;17.00;;
47337;SDS011;33069;51.970;5.892;2022-08-19T01:53:05;18.75;;;16.77;;
47337;SDS011;33069;51.970;5.892;2022-08-19T01:55:38;21.65;;;17.08;;
47337;SDS011;33069;51.970;5.892;2022-08-19T01:58:07;24.05;;;16.80;;
47337;SDS011;33069;51.970;5.892;2022-08-19T02:00:37;20.17;;;18.13;;
47337;SDS011;33069;51.970;5.892;2022-08-19T02:03:02;21.58;;;17.45;;
47337;SDS011;33069;51.970;5.892;2022-08-19T02:05:28;22.70;;;18.40;;
47337;SDS011;33069;51.970;5.892;2022-08-19T02:07:54;23.55;;;16.75;;
47337;SDS011;33069;51.970;5.892;2022-08-19T02:10:22;19.35;;;17.15;;
47337;SDS011;33069;51.970;5.892;2022-08-19T02:12:48;21.02;;;15.90;;
47337;SDS011;33069;51.970;5.892;2022-08-19T02:15:15;20.58;;;17.80;;
47337;SDS011;33069;51.970;5.892;2022-08-19T02:17:41;20.02;;;16.42;;
47337;SDS011;33069;51.970;5.892;2022-08-19T02:20:08;20.67;;;17.13;;
47337;SDS011;33069;51.970;5.892;2022-08-19T02:22:34;18.73;;;16.55;;
47337;SDS011;33069;51.970;5.892;2022-08-19T02:25:00;21.95;;;17.88;;
47337;SDS011;33069;51.970;5.892;2022-08-19T02:27:26;21.10;;;18.85;;
47337;SDS011;33069;51.970;5.892;2022-08-19T02:29:53;21.17;;;18.77;;
47337;SDS011;33069;51.970;5.892;2022-08-19T02:32:18;20.60;;;17.23;;
47337;SDS011;33069;51.970;5.892;2022-08-19T02:34:45;20.60;;;17.45;;
47337;SDS011;33069;51.970;5.892;2022-08-19T02:37:11;20.20;;;17.50;;
47337;SDS011;33069;51.970;5.892;2022-08-19T02:39:56;20.52;;;16.80;;
47337;SDS011;33069;51.970;5.892;2022-08-19T02:42:23;21.92;;;19.30;;
47337;SDS011;33069;51.970;5.892;2022-08-19T02:44:49;21.38;;;17.13;;
47337;SDS011;33069;51.970;5.892;2022-08-19T02:47:15;22.27;;;18.60;;
47337;SDS011;33069;51.970;5.892;2022-08-19T02:49:41;26.00;;;20.42;;
47337;SDS011;33069;51.970;5.892;2022-08-19T02:52:06;23.02;;;20.52;;
47337;SDS011;33069;51.970;5.892;2022-08-19T02:54:32;21.73;;;17.85;;
47337;SDS011;33069;51.970;5.892;2022-08-19T02:56:58;27.10;;;22.48;;
47337;SDS011;33069;51.970;5.892;2022-08-19T02:59:24;21.35;;;18.95;;
47337;SDS011;33069;51.970;5.892;2022-08-19T03:01:50;23.05;;;18.50;;
47337;SDS011;33069;51.970;5.892;2022-08-19T03:04:16;24.10;;;18.80;;
47337;SDS011;33069;51.970;5.892;2022-08-19T03:06:42;29.45;;;21.98;;
47337;SDS011;33069;51.970;5.892;2022-08-19T03:09:10;25.80;;;19.42;;
47337;SDS011;33069;51.970;5.892;2022-08-19T03:11:37;22.40;;;19.45;;
47337;SDS011;33069;51.970;5.892;2022-08-19T03:14:03;27.70;;;22.00;;
47337;SDS011;33069;51.970;5.892;2022-08-19T03:16:33;26.10;;;20.65;;
47337;SDS011;33069;51.970;5.892;2022-08-19T03:19:04;30.77;;;21.30;;
47337;SDS011;33069;51.970;5.892;2022-08-19T03:21:31;27.55;;;21.30;;
47337;SDS011;33069;51.970;5.892;2022-08-19T03:23:59;26.83;;;21.38;;
47337;SDS011;33069;51.970;5.892;2022-08-19T03:26:30;25.13;;;20.30;;
47337;SDS011;33069;51.970;5.892;2022-08-19T03:28:56;27.67;;;20.98;;
47337;SDS011;33069;51.970;5.892;2022-08-19T03:31:23;28.83;;;24.02;;
47337;SDS011;33069;51.970;5.892;2022-08-19T03:33:49;28.05;;;22.77;;
47337;SDS011;33069;51.970;5.892;2022-08-19T03:36:20;28.83;;;21.00;;
47337;SDS011;33069;51.970;5.892;2022-08-19T03:38:50;34.28;;;26.25;;
47337;SDS011;33069;51.970;5.892;2022-08-19T03:41:23;28.10;;;22.67;;
47337;SDS011;33069;51.970;5.892;2022-08-19T03:43:51;37.85;;;27.60;;
47337;SDS011;33069;51.970;5.892;2022-08-19T03:46:19;34.10;;;26.13;;
47337;SDS011;33069;51.970;5.892;2022-08-19T03:48:47;35.65;;;26.30;;
47337;SDS011;33069;51.970;5.892;2022-08-19T03:51:21;40.65;;;29.17;;
47337;SDS011;33069;51.970;5.892;2022-08-19T03:53:50;23.90;;;21.30;;
47337;SDS011;33069;51.970;5.892;2022-08-19T03:56:16;25.35;;;21.52;;
47337;SDS011;33069;51.970;5.892;2022-08-19T03:58:43;28.27;;;21.85;;
47337;SDS011;33069;51.970;5.892;2022-08-19T04:01:09;30.08;;;23.35;;
47337;SDS011;33069;51.970;5.892;2022-08-19T04:03:38;29.55;;;23.40;;
47337;SDS011;33069;51.970;5.892;2022-08-19T04:06:15;28.15;;;21.80;;
47337;SDS011;33069;51.970;5.892;2022-08-19T04:08:43;34.67;;;26.08;;
47337;SDS011;33069;51.970;5.892;2022-08-19T04:11:11;29.27;;;24.67;;
47337;SDS011;33069;51.970;5.892;2022-08-19T04:13:38;35.85;;;27.20;;
47337;SDS011;33069;51.970;5.892;2022-08-19T04:16:04;32.30;;;25.17;;
47337;SDS011;33069;51.970;5.892;2022-08-19T04:18:30;30.85;;;24.23;;
47337;SDS011;33069;51.970;5.892;2022-08-19T04:20:58;32.15;;;22.77;;
47337;SDS011;33069;51.970;5.892;2022-08-19T04:23:24;29.45;;;22.58;;
47337;SDS011;33069;51.970;5.892;2022-08-19T04:25:50;28.83;;;23.85;;
47337;SDS011;33069;51.970;5.892;2022-08-19T04:28:16;36.72;;;26.40;;
47337;SDS011;33069;51.970;5.892;2022-08-19T04:30:43;36.65;;;26.70;;
47337;SDS011;33069;51.970;5.892;2022-08-19T04:33:12;36.22;;;27.83;;
47337;SDS011;33069;51.970;5.892;2022-08-19T04:35:39;26.08;;;19.67;;
47337;SDS011;33069;51.970;5.892;2022-08-19T04:38:07;38.17;;;27.52;;
47337;SDS011;33069;51.970;5.892;2022-08-19T04:40:34;37.33;;;28.17;;
47337;SDS011;33069;51.970;5.892;2022-08-19T04:43:23;33.90;;;25.08;;
47337;SDS011;33069;51.970;5.892;2022-08-19T04:45:49;35.83;;;25.73;;
47337;SDS011;33069;51.970;5.892;2022-08-19T04:48:16;32.55;;;25.45;;
47337;SDS011;33069;51.970;5.892;2022-08-19T04:50:51;39.13;;;29.23;;
47337;SDS011;33069;51.970;5.892;2022-08-19T04:53:25;27.50;;;23.52;;
47337;SDS011;33069;51.970;5.892;2022-08-19T04:55:54;38.95;;;29.20;;
47337;SDS011;33069;51.970;5.892;2022-08-19T04:58:21;35.53;;;24.23;;
47337;SDS011;33069;51.970;5.892;2022-08-19T05:00:48;35.53;;;27.58;;
47337;SDS011;33069;51.970;5.892;2022-08-19T05:03:14;31.42;;;26.58;;
47337;SDS011;33069;51.970;5.892;2022-08-19T05:05:42;34.50;;;28.98;;
47337;SDS011;33069;51.970;5.892;2022-08-19T05:08:10;32.28;;;26.15;;
47337;SDS011;33069;51.970;5.892;2022-08-19T05:10:38;56.65;;;35.85;;
47337;SDS011;33069;51.970;5.892;2022-08-19T05:13:05;33.33;;;27.58;;
47337;SDS011;33069;51.970;5.892;2022-08-19T05:15:31;44.88;;;31.30;;
47337;SDS011;33069;51.970;5.892;2022-08-19T05:17:56;38.70;;;29.80;;
47337;SDS011;33069;51.970;5.892;2022-08-19T05:20:41;48.38;;;32.83;;
47337;SDS011;33069;51.970;5.892;2022-08-19T05:23:25;37.97;;;28.80;;
47337;SDS011;33069;51.970;5.892;2022-08-19T05:25:51;34.50;;;26.60;;
47337;SDS011;33069;51.970;5.892;2022-08-19T05:28:18;30.77;;;24.85;;
47337;SDS011;33069;51.970;5.892;2022-08-19T05:30:44;32.60;;;26.58;;
47337;SDS011;33069;51.970;5.892;2022-08-19T05:33:11;37.05;;;27.73;;
47337;SDS011;33069;51.970;5.892;2022-08-19T05:35:37;35.42;;;27.52;;
47337;SDS011;33069;51.970;5.892;2022-08-19T05:38:05;37.80;;;28.42;;
47337;SDS011;33069;51.970;5.892;2022-08-19T05:40:35;36.22;;;29.55;;
47337;SDS011;33069;51.970;5.892;2022-08-19T05:43:04;60.45;;;39.88;;
47337;SDS011;33069;51.970;5.892;2022-08-19T05:45:30;38.65;;;30.67;;
47337;SDS011;33069;51.970;5.892;2022-08-19T05:47:56;39.65;;;30.98;;
47337;SDS011;33069;51.970;5.892;2022-08-19T05:50:23;34.15;;;28.58;;
47337;SDS011;33069;51.970;5.892;2022-08-19T05:52:51;39.33;;;28.73;;
47337;SDS011;33069;51.970;5.892;2022-08-19T05:55:18;38.58;;;30.88;;
47337;SDS011;33069;51.970;5.892;2022-08-19T05:57:45;35.55;;;28.40;;
47337;SDS011;33069;51.970;5.892;2022-08-19T06:00:11;39.65;;;30.90;;
47337;SDS011;33069;51.970;5.892;2022-08-19T06:02:38;42.40;;;33.60;;
47337;SDS011;33069;51.970;5.892;2022-08-19T06:05:05;42.80;;;32.92;;
47337;SDS011;33069;51.970;5.892;2022-08-19T06:07:34;37.25;;;30.65;;
47337;SDS011;33069;51.970;5.892;2022-08-19T06:10:00;33.75;;;29.05;;
47337;SDS011;33069;51.970;5.892;2022-08-19T06:12:28;41.67;;;32.83;;
47337;SDS011;33069;51.970;5.892;2022-08-19T06:14:56;33.15;;;29.02;;
47337;SDS011;33069;51.970;5.892;2022-08-19T06:17:22;33.38;;;29.05;;
47337;SDS011;33069;51.970;5.892;2022-08-19T06:19:50;39.22;;;29.83;;
47337;SDS011;33069;51.970;5.892;2022-08-19T06:22:16;40.80;;;31.73;;
47337;SDS011;33069;51.970;5.892;2022-08-19T06:24:42;44.60;;;34.67;;
47337;SDS011;33069;51.970;5.892;2022-08-19T06:27:08;42.65;;;32.97;;
47337;SDS011;33069;51.970;5.892;2022-08-19T06:29:35;44.42;;;33.40;;
47337;SDS011;33069;51.970;5.892;2022-08-19T06:32:01;43.88;;;32.38;;
47337;SDS011;33069;51.970;5.892;2022-08-19T06:34:29;47.40;;;33.22;;
47337;SDS011;33069;51.970;5.892;2022-08-19T06:36:58;44.03;;;32.95;;
47337;SDS011;33069;51.970;5.892;2022-08-19T06:39:27;52.38;;;36.50;;
47337;SDS011;33069;51.970;5.892;2022-08-19T06:41:55;45.08;;;32.92;;
47337;SDS011;33069;51.970;5.892;2022-08-19T06:44:24;41.47;;;32.10;;
47337;SDS011;33069;51.970;5.892;2022-08-19T06:46:53;43.90;;;32.63;;
47337;SDS011;33069;51.970;5.892;2022-08-19T06:49:19;50.20;;;35.55;;
47337;SDS011;33069;51.970;5.892;2022-08-19T06:51:47;52.72;;;35.67;;
47337;SDS011;33069;51.970;5.892;2022-08-19T06:54:14;58.38;;;38.53;;
47337;SDS011;33069;51.970;5.892;2022-08-19T06:56:42;91.65;;;52.72;;
47337;SDS011;33069;51.970;5.892;2022-08-19T06:59:18;66.22;;;40.50;;
47337;SDS011;33069;51.970;5.892;2022-08-19T07:01:51;69.22;;;43.15;;
47337;SDS011;33069;51.970;5.892;2022-08-19T07:04:19;91.82;;;49.35;;
47337;SDS011;33069;51.970;5.892;2022-08-19T07:06:46;85.72;;;49.13;;
47337;SDS011;33069;51.970;5.892;2022-08-19T07:09:13;117.20;;;57.40;;
47337;SDS011;33069;51.970;5.892;2022-08-19T07:11:47;103.60;;;56.88;;
47337;SDS011;33069;51.970;5.892;2022-08-19T07:14:15;112.38;;;58.90;;
47337;SDS011;33069;51.970;5.892;2022-08-19T07:16:43;104.85;;;54.10;;
47337;SDS011;33069;51.970;5.892;2022-08-19T07:19:10;111.93;;;59.47;;
47337;SDS011;33069;51.970;5.892;2022-08-19T07:21:37;111.13;;;59.00;;
47337;SDS011;33069;51.970;5.892;2022-08-19T07:24:02;97.60;;;54.78;;
47337;SDS011;33069;51.970;5.892;2022-08-19T07:26:30;96.15;;;55.53;;
47337;SDS011;33069;51.970;5.892;2022-08-19T07:28:59;102.20;;;56.60;;
47337;SDS011;33069;51.970;5.892;2022-08-19T07:31:26;108.20;;;60.03;;
47337;SDS011;33069;51.970;5.892;2022-08-19T07:33:53;125.03;;;66.75;;
47337;SDS011;33069;51.970;5.892;2022-08-19T07:36:22;97.63;;;55.20;;
47337;SDS011;33069;51.970;5.892;2022-08-19T07:38:51;119.88;;;66.93;;
47337;SDS011;33069;51.970;5.892;2022-08-19T07:41:20;108.47;;;60.60;;
47337;SDS011;33069;51.970;5.892;2022-08-19T07:43:47;103.10;;;59.55;;
47337;SDS011;33069;51.970;5.892;2022-08-19T07:46:14;116.35;;;64.35;;
47337;SDS011;33069;51.970;5.892;2022-08-19T07:48:42;104.22;;;61.35;;
47337;SDS011;33069;51.970;5.892;2022-08-19T07:51:12;110.82;;;63.85;;
47337;SDS011;33069;51.970;5.892;2022-08-19T07:53:39;114.25;;;63.25;;
47337;SDS011;33069;51.970;5.892;2022-08-19T07:56:05;111.80;;;65.07;;
47337;SDS011;33069;51.970;5.892;2022-08-19T07:58:32;123.57;;;71.35;;
47337;SDS011;33069;51.970;5.892;2022-08-19T08:00:59;122.35;;;71.65;;
47337;SDS011;33069;51.970;5.892;2022-08-19T08:03:26;108.95;;;65.93;;
47337;SDS011;33069;51.970;5.892;2022-08-19T08:06:12;104.82;;;66.35;;
47337;SDS011;33069;51.970;5.892;2022-08-19T08:08:57;101.32;;;65.00;;
47337;SDS011;33069;51.970;5.892;2022-08-19T08:11:36;92.18;;;64.57;;
47337;SDS011;33069;51.970;5.892;2022-08-19T08:14:07;92.32;;;62.35;;
47337;SDS011;33069;51.970;5.892;2022-08-19T08:16:37;86.20;;;58.95;;
47337;SDS011;33069;51.970;5.892;2022-08-19T08:19:04;91.78;;;62.90;;
47337;SDS011;33069;51.970;5.892;2022-08-19T08:21:31;92.82;;;63.33;;
47337;SDS011;33069;51.970;5.892;2022-08-19T08:23:57;95.53;;;63.30;;
47337;SDS011;33069;51.970;5.892;2022-08-19T08:26:23;96.80;;;62.60;;
47337;SDS011;33069;51.970;5.892;2022-08-19T08:28:50;87.90;;;60.90;;
47337;SDS011;33069;51.970;5.892;2022-08-19T08:31:16;91.10;;;59.50;;
47337;SDS011;33069;51.970;5.892;2022-08-19T08:33:44;91.85;;;62.25;;
47337;SDS011;33069;51.970;5.892;2022-08-19T08:36:11;81.20;;;57.85;;
47337;SDS011;33069;51.970;5.892;2022-08-19T08:38:39;80.10;;;53.40;;
47337;SDS011;33069;51.970;5.892;2022-08-19T08:43:59;70.18;;;45.83;;
47337;SDS011;33069;51.970;5.892;2022-08-19T08:46:39;70.75;;;46.20;;
47337;SDS011;33069;51.970;5.892;2022-08-19T08:51:43;65.25;;;44.65;;
47337;SDS011;33069;51.970;5.892;2022-08-19T08:54:13;60.58;;;44.67;;
47337;SDS011;33069;51.970;5.892;2022-08-19T08:56:41;69.93;;;47.63;;
47337;SDS011;33069;51.970;5.892;2022-08-19T08:59:12;70.93;;;47.13;;
47337;SDS011;33069;51.970;5.892;2022-08-19T09:01:52;69.55;;;45.72;;
47337;SDS011;33069;51.970;5.892;2022-08-19T09:04:18;62.88;;;42.15;;
47337;SDS011;33069;51.970;5.892;2022-08-19T09:06:55;69.63;;;47.10;;
47337;SDS011;33069;51.970;5.892;2022-08-19T09:09:43;58.47;;;41.03;;
47337;SDS011;33069;51.970;5.892;2022-08-19T09:15:00;60.17;;;42.35;;
47337;SDS011;33069;51.970;5.892;2022-08-19T09:17:30;58.47;;;41.75;;
47337;SDS011;33069;51.970;5.892;2022-08-19T09:22:34;59.63;;;41.92;;
47337;SDS011;33069;51.970;5.892;2022-08-19T09:25:05;62.22;;;42.50;;
47337;SDS011;33069;51.970;5.892;2022-08-19T09:27:32;63.00;;;40.67;;
47337;SDS011;33069;51.970;5.892;2022-08-19T09:29:59;58.85;;;40.60;;
47337;SDS011;33069;51.970;5.892;2022-08-19T09:32:24;62.60;;;40.35;;
47337;SDS011;33069;51.970;5.892;2022-08-19T09:34:51;52.63;;;36.92;;
47337;SDS011;33069;51.970;5.892;2022-08-19T09:37:23;54.40;;;39.17;;
47337;SDS011;33069;51.970;5.892;2022-08-19T09:39:49;60.90;;;39.75;;
47337;SDS011;33069;51.970;5.892;2022-08-19T09:42:15;58.95;;;43.67;;
47337;SDS011;33069;51.970;5.892;2022-08-19T09:44:42;57.10;;;40.38;;
47337;SDS011;33069;51.970;5.892;2022-08-19T09:47:09;55.20;;;37.83;;
47337;SDS011;33069;51.970;5.892;2022-08-19T09:49:36;54.63;;;37.25;;
47337;SDS011;33069;51.970;5.892;2022-08-19T09:52:02;49.50;;;34.20;;
47337;SDS011;33069;51.970;5.892;2022-08-19T09:54:28;58.45;;;38.67;;
47337;SDS011;33069;51.970;5.892;2022-08-19T09:56:54;60.65;;;36.08;;
47337;SDS011;33069;51.970;5.892;2022-08-19T09:59:23;53.53;;;32.53;;
47337;SDS011;33069;51.970;5.892;2022-08-19T10:01:48;50.35;;;34.72;;
47337;SDS011;33069;51.970;5.892;2022-08-19T10:04:14;52.95;;;33.25;;
47337;SDS011;33069;51.970;5.892;2022-08-19T10:06:40;49.40;;;32.58;;
47337;SDS011;33069;51.970;5.892;2022-08-19T10:09:07;42.58;;;31.20;;
47337;SDS011;33069;51.970;5.892;2022-08-19T10:11:35;47.30;;;29.70;;
47337;SDS011;33069;51.970;5.892;2022-08-19T10:14:02;39.03;;;27.25;;
47337;SDS011;33069;51.970;5.892;2022-08-19T10:16:30;47.58;;;29.05;;
47337;SDS011;33069;51.970;5.892;2022-08-19T10:18:56;40.30;;;29.48;;
47337;SDS011;33069;51.970;5.892;2022-08-19T10:21:32;52.75;;;31.55;;
47337;SDS011;33069;51.970;5.892;2022-08-19T10:24:01;47.33;;;31.70;;
47337;SDS011;33069;51.970;5.892;2022-08-19T10:26:30;48.60;;;31.83;;
47337;SDS011;33069;51.970;5.892;2022-08-19T10:29:02;48.60;;;31.70;;
47337;SDS011;33069;51.970;5.892;2022-08-19T10:31:30;50.38;;;33.50;;
47337;SDS011;33069;51.970;5.892;2022-08-19T10:33:57;49.50;;;32.78;;
47337;SDS011;33069;51.970;5.892;2022-08-19T10:36:25;43.92;;;30.00;;
47337;SDS011;33069;51.970;5.892;2022-08-19T10:38:54;45.25;;;31.75;;
47337;SDS011;33069;51.970;5.892;2022-08-19T10:41:24;43.30;;;29.58;;
47337;SDS011;33069;51.970;5.892;2022-08-19T10:43:53;44.92;;;31.92;;
47337;SDS011;33069;51.970;5.892;2022-08-19T10:46:20;44.05;;;30.88;;
47337;SDS011;33069;51.970;5.892;2022-08-19T10:48:48;44.28;;;29.52;;
47337;SDS011;33069;51.970;5.892;2022-08-19T10:51:14;46.58;;;31.80;;
47337;SDS011;33069;51.970;5.892;2022-08-19T10:53:59;44.72;;;29.27;;
47337;SDS011;33069;51.970;5.892;2022-08-19T10:56:25;53.17;;;35.88;;
47337;SDS011;33069;51.970;5.892;2022-08-19T10:59:11;46.30;;;31.55;;
47337;SDS011;33069;51.970;5.892;2022-08-19T11:01:39;47.75;;;29.38;;
47337;SDS011;33069;51.970;5.892;2022-08-19T11:04:06;45.03;;;30.75;;
47337;SDS011;33069;51.970;5.892;2022-08-19T11:06:35;43.78;;;29.48;;
47337;SDS011;33069;51.970;5.892;2022-08-19T11:09:03;41.10;;;28.25;;
47337;SDS011;33069;51.970;5.892;2022-08-19T11:11:30;46.80;;;29.77;;
47337;SDS011;33069;51.970;5.892;2022-08-19T11:13:57;37.50;;;25.65;;
47337;SDS011;33069;51.970;5.892;2022-08-19T11:16:24;38.58;;;27.67;;
47337;SDS011;33069;51.970;5.892;2022-08-19T11:18:54;36.05;;;25.45;;
47337;SDS011;33069;51.970;5.892;2022-08-19T11:21:24;38.95;;;27.13;;
47337;SDS011;33069;51.970;5.892;2022-08-19T11:23:53;36.10;;;26.00;;
47337;SDS011;33069;51.970;5.892;2022-08-19T11:26:22;42.58;;;30.92;;
47337;SDS011;33069;51.970;5.892;2022-08-19T11:28:48;38.60;;;26.88;;
47337;SDS011;33069;51.970;5.892;2022-08-19T11:31:17;36.63;;;26.10;;
47337;SDS011;33069;51.970;5.892;2022-08-19T11:33:45;33.90;;;24.02;;
47337;SDS011;33069;51.970;5.892;2022-08-19T11:36:11;37.90;;;24.08;;
47337;SDS011;33069;51.970;5.892;2022-08-19T11:38:38;40.17;;;29.00;;
47337;SDS011;33069;51.970;5.892;2022-08-19T11:41:05;39.28;;;25.40;;
47337;SDS011;33069;51.970;5.892;2022-08-19T11:43:32;37.58;;;24.40;;
47337;SDS011;33069;51.970;5.892;2022-08-19T11:45:59;35.85;;;25.45;;
47337;SDS011;33069;51.970;5.892;2022-08-19T11:48:31;40.63;;;25.75;;
47337;SDS011;33069;51.970;5.892;2022-08-19T11:50:57;31.85;;;23.00;;
47337;SDS011;33069;51.970;5.892;2022-08-19T11:53:23;39.80;;;28.10;;
47337;SDS011;33069;51.970;5.892;2022-08-19T11:55:49;37.70;;;26.45;;
47337;SDS011;33069;51.970;5.892;2022-08-19T11:58:20;37.35;;;26.73;;
47337;SDS011;33069;51.970;5.892;2022-08-19T12:00:46;40.22;;;28.45;;
47337;SDS011;33069;51.970;5.892;2022-08-19T12:03:12;34.40;;;25.23;;
47337;SDS011;33069;51.970;5.892;2022-08-19T12:05:39;35.90;;;25.67;;
47337;SDS011;33069;51.970;5.892;2022-08-19T12:08:05;37.55;;;24.05;;
47337;SDS011;33069;51.970;5.892;2022-08-19T12:10:32;35.78;;;25.38;;
47337;SDS011;33069;51.970;5.892;2022-08-19T12:12:58;38.13;;;25.35;;
47337;SDS011;33069;51.970;5.892;2022-08-19T12:15:25;40.05;;;28.50;;
47337;SDS011;33069;51.970;5.892;2022-08-19T12:17:53;37.80;;;29.17;;
47337;SDS011;33069;51.970;5.892;2022-08-19T12:20:22;34.67;;;26.75;;
47337;SDS011;33069;51.970;5.892;2022-08-19T12:22:48;39.28;;;29.52;;
47337;SDS011;33069;51.970;5.892;2022-08-19T12:25:15;41.17;;;33.47;;
47337;SDS011;33069;51.970;5.892;2022-08-19T12:27:40;41.95;;;29.92;;
47337;SDS011;33069;51.970;5.892;2022-08-19T12:30:08;39.60;;;28.25;;
47337;SDS011;33069;51.970;5.892;2022-08-19T12:32:35;38.80;;;28.58;;
47337;SDS011;33069;51.970;5.892;2022-08-19T12:35:01;34.88;;;28.95;;
47337;SDS011;33069;51.970;5.892;2022-08-19T12:37:27;40.55;;;30.80;;
47337;SDS011;33069;51.970;5.892;2022-08-19T12:39:54;32.25;;;27.02;;
47337;SDS011;33069;51.970;5.892;2022-08-19T12:42:20;35.35;;;26.92;;
47337;SDS011;33069;51.970;5.892;2022-08-19T12:44:47;37.22;;;28.67;;
47337;SDS011;33069;51.970;5.892;2022-08-19T12:47:13;37.10;;;30.00;;
47337;SDS011;33069;51.970;5.892;2022-08-19T12:49:39;37.13;;;26.02;;
47337;SDS011;33069;51.970;5.892;2022-08-19T12:52:06;36.00;;;27.88;;
47337;SDS011;33069;51.970;5.892;2022-08-19T12:54:34;39.85;;;27.20;;
47337;SDS011;33069;51.970;5.892;2022-08-19T12:57:04;38.50;;;30.60;;
47337;SDS011;33069;51.970;5.892;2022-08-19T12:59:31;37.05;;;29.73;;
47337;SDS011;33069;51.970;5.892;2022-08-19T13:01:56;35.90;;;27.90;;
47337;SDS011;33069;51.970;5.892;2022-08-19T13:04:22;45.65;;;31.95;;
47337;SDS011;33069;51.970;5.892;2022-08-19T13:06:48;38.30;;;30.88;;
47337;SDS011;33069;51.970;5.892;2022-08-19T13:09:14;42.20;;;31.35;;
47337;SDS011;33069;51.970;5.892;2022-08-19T13:11:39;39.83;;;32.10;;
47337;SDS011;33069;51.970;5.892;2022-08-19T13:14:05;44.97;;;35.35;;
47337;SDS011;33069;51.970;5.892;2022-08-19T13:16:31;40.45;;;30.80;;
47337;SDS011;33069;51.970;5.892;2022-08-19T13:18:57;37.15;;;32.60;;
47337;SDS011;33069;51.970;5.892;2022-08-19T13:21:24;39.63;;;28.70;;
47337;SDS011;33069;51.970;5.892;2022-08-19T13:23:52;33.70;;;28.10;;
47337;SDS011;33069;51.970;5.892;2022-08-19T13:26:19;36.08;;;29.58;;
47337;SDS011;33069;51.970;5.892;2022-08-19T13:28:45;36.03;;;28.92;;
47337;SDS011;33069;51.970;5.892;2022-08-19T13:31:31;38.45;;;27.35;;
47337;SDS011;33069;51.970;5.892;2022-08-19T13:34:18;34.70;;;28.20;;
47337;SDS011;33069;51.970;5.892;2022-08-19T13:36:51;35.97;;;28.02;;
47337;SDS011;33069;51.970;5.892;2022-08-19T13:39:18;36.00;;;27.50;;
47337;SDS011;33069;51.970;5.892;2022-08-19T13:41:44;35.72;;;30.05;;
47337;SDS011;33069;51.970;5.892;2022-08-19T13:44:18;33.33;;;25.67;;
47337;SDS011;33069;51.970;5.892;2022-08-19T13:46:45;35.58;;;26.27;;
47337;SDS011;33069;51.970;5.892;2022-08-19T13:49:12;30.35;;;25.45;;
47337;SDS011;33069;51.970;5.892;2022-08-19T13:51:39;32.05;;;24.80;;
47337;SDS011;33069;51.970;5.892;2022-08-19T13:54:06;28.77;;;23.52;;
47337;SDS011;33069;51.970;5.892;2022-08-19T13:56:33;33.28;;;28.33;;
47337;SDS011;33069;51.970;5.892;2022-08-19T13:59:00;31.08;;;26.08;;
47337;SDS011;33069;51.970;5.892;2022-08-19T14:01:27;30.23;;;23.80;;
47337;SDS011;33069;51.970;5.892;2022-08-19T14:03:53;30.10;;;26.88;;
47337;SDS011;33069;51.970;5.892;2022-08-19T14:06:19;41.42;;;31.23;;
47337;SDS011;33069;51.970;5.892;2022-08-19T14:08:46;41.08;;;30.27;;
47337;SDS011;33069;51.970;5.892;2022-08-19T14:11:12;34.90;;;28.00;;
47337;SDS011;33069;51.970;5.892;2022-08-19T14:13:37;33.70;;;26.90;;
47337;SDS011;33069;51.970;5.892;2022-08-19T14:16:07;34.67;;;28.42;;
47337;SDS011;33069;51.970;5.892;2022-08-19T14:18:34;47.60;;;32.03;;
47337;SDS011;33069;51.970;5.892;2022-08-19T14:21:00;37.85;;;27.90;;
47337;SDS011;33069;51.970;5.892;2022-08-19T14:23:28;35.67;;;27.63;;
47337;SDS011;33069;51.970;5.892;2022-08-19T14:26:02;34.13;;;26.73;;
47337;SDS011;33069;51.970;5.892;2022-08-19T14:28:29;40.90;;;29.77;;
47337;SDS011;33069;51.970;5.892;2022-08-19T14:30:55;32.08;;;27.13;;
47337;SDS011;33069;51.970;5.892;2022-08-19T14:33:21;34.78;;;24.70;;
47337;SDS011;33069;51.970;5.892;2022-08-19T14:35:46;43.22;;;30.27;;
47337;SDS011;33069;51.970;5.892;2022-08-19T14:38:16;38.22;;;26.65;;